Parkerton, Wyoming
Current Conditions -  °F | °C
As of 4:53 AM on Thursday 29 Jan 2015 (Local Time) from KCPR Reporting Station
Overcast Overcast  
Wind Chill: 24°   Ceiling: 4200
Heat Index: 29°   Visibility: 10mi
Dew Point: 25°   Wind: 5mph
Humidity: 85%   Direction: 340°NNW
Pressure: 30.43"   Gusts: NA
Location:  43.0973°N, 105.88°W
Report Text: KCPR 291153Z 34004KT 10SM OVC042 M02/M04 A3043 RMK AO2 SLP325 70016 T10171039 10011 21017 53006
Loading
Personal Weather Stations






























Interactive Weather Map New forecast layout! Learn more

10-Day Weather Forecast

Advertisements
Track Severe Weather on mobile